sensor_id;sensor_type;location;lat;lon;timestamp;pressure;altitude;pressure_sealevel;temperature;humidity
72612;BME280;60655;52.182;4.474;2023-04-25T00:01:11;101088.28;;;7.72;74.08
72612;BME280;60655;52.182;4.474;2023-04-25T00:03:13;101087.78;;;7.62;73.25
72612;BME280;60655;52.182;4.474;2023-04-25T00:05:14;101082.84;;;7.80;74.95
72612;BME280;60655;52.182;4.474;2023-04-25T00:07:16;101097.72;;;7.60;73.81
72612;BME280;60655;52.182;4.474;2023-04-25T00:09:17;101092.19;;;7.55;74.17
72612;BME280;60655;52.182;4.474;2023-04-25T00:11:18;101089.44;;;7.41;74.10
72612;BME280;60655;52.182;4.474;2023-04-25T00:13:19;101090.31;;;7.49;74.83
72612;BME280;60655;52.182;4.474;2023-04-25T00:15:19;101087.53;;;7.57;73.58
72612;BME280;60655;52.182;4.474;2023-04-25T00:17:20;101096.91;;;7.59;75.08
72612;BME280;60655;52.182;4.474;2023-04-25T00:19:22;101093.59;;;7.51;74.89
72612;BME280;60655;52.182;4.474;2023-04-25T00:21:23;101093.00;;;7.55;73.34
72612;BME280;60655;52.182;4.474;2023-04-25T00:23:24;101095.66;;;7.55;73.80
72612;BME280;60655;52.182;4.474;2023-04-25T00:25:25;101095.59;;;7.49;73.82
72612;BME280;60655;52.182;4.474;2023-04-25T00:27:26;101102.00;;;7.61;73.96
72612;BME280;60655;52.182;4.474;2023-04-25T00:29:27;101102.94;;;7.53;72.20
72612;BME280;60655;52.182;4.474;2023-04-25T00:31:28;101092.56;;;7.52;71.27
72612;BME280;60655;52.182;4.474;2023-04-25T00:33:29;101105.41;;;7.55;71.08
72612;BME280;60655;52.182;4.474;2023-04-25T00:35:30;101102.75;;;7.55;70.52
72612;BME280;60655;52.182;4.474;2023-04-25T00:37:31;101110.25;;;7.51;70.76
72612;BME280;60655;52.182;4.474;2023-04-25T00:39:32;101103.84;;;7.39;68.52
72612;BME280;60655;52.182;4.474;2023-04-25T00:41:33;101106.97;;;7.28;67.45
72612;BME280;60655;52.182;4.474;2023-04-25T00:43:33;101104.31;;;7.28;67.19
72612;BME280;60655;52.182;4.474;2023-04-25T00:45:38;101109.06;;;7.32;66.69
72612;BME280;60655;52.182;4.474;2023-04-25T00:47:40;101100.13;;;7.33;66.15
72612;BME280;60655;52.182;4.474;2023-04-25T00:49:41;101104.59;;;7.33;67.62
72612;BME280;60655;52.182;4.474;2023-04-25T00:51:42;101106.28;;;7.40;66.46
72612;BME280;60655;52.182;4.474;2023-04-25T00:53:44;101105.66;;;7.38;65.64
72612;BME280;60655;52.182;4.474;2023-04-25T00:55:46;101114.97;;;7.34;64.75
72612;BME280;60655;52.182;4.474;2023-04-25T00:57:48;101108.69;;;7.35;66.45
72612;BME280;60655;52.182;4.474;2023-04-25T00:59:50;101115.59;;;7.36;69.18
72612;BME280;60655;52.182;4.474;2023-04-25T01:01:52;101087.84;;;7.26;65.72
72612;BME280;60655;52.182;4.474;2023-04-25T01:03:53;101124.09;;;7.32;66.37
72612;BME280;60655;52.182;4.474;2023-04-25T01:05:54;101106.84;;;7.36;66.88
72612;BME280;60655;52.182;4.474;2023-04-25T01:07:55;101120.44;;;7.33;67.12
72612;BME280;60655;52.182;4.474;2023-04-25T01:09:56;101117.88;;;7.39;67.54
72612;BME280;60655;52.182;4.474;2023-04-25T01:11:57;101124.16;;;7.38;68.20
72612;BME280;60655;52.182;4.474;2023-04-25T01:13:58;101112.44;;;7.26;68.51
72612;BME280;60655;52.182;4.474;2023-04-25T01:16:00;101115.78;;;7.35;69.84
72612;BME280;60655;52.182;4.474;2023-04-25T01:18:01;101116.44;;;7.37;68.66
72612;BME280;60655;52.182;4.474;2023-04-25T01:20:04;101108.94;;;7.40;71.47
72612;BME280;60655;52.182;4.474;2023-04-25T01:22:05;101116.88;;;7.40;69.26
72612;BME280;60655;52.182;4.474;2023-04-25T01:24:06;101126.50;;;7.48;71.93
72612;BME280;60655;52.182;4.474;2023-04-25T01:26:11;101113.59;;;7.60;71.48
72612;BME280;60655;52.182;4.474;2023-04-25T01:28:12;101128.97;;;7.50;68.11
72612;BME280;60655;52.182;4.474;2023-04-25T01:30:13;101129.56;;;7.52;68.24
72612;BME280;60655;52.182;4.474;2023-04-25T01:32:14;101135.19;;;7.42;67.39
72612;BME280;60655;52.182;4.474;2023-04-25T01:34:16;101130.91;;;7.41;67.63
72612;BME280;60655;52.182;4.474;2023-04-25T01:36:16;101134.09;;;7.58;68.70
72612;BME280;60655;52.182;4.474;2023-04-25T01:38:18;101133.44;;;7.49;68.30
72612;BME280;60655;52.182;4.474;2023-04-25T01:40:19;101133.63;;;7.11;71.06
72612;BME280;60655;52.182;4.474;2023-04-25T01:42:21;101132.28;;;7.37;69.24
72612;BME280;60655;52.182;4.474;2023-04-25T01:44:22;101132.81;;;7.47;68.91
72612;BME280;60655;52.182;4.474;2023-04-25T01:46:23;101123.97;;;7.61;71.10
72612;BME280;60655;52.182;4.474;2023-04-25T01:48:24;101131.28;;;7.59;68.00
72612;BME280;60655;52.182;4.474;2023-04-25T01:50:25;101133.44;;;7.49;71.70
72612;BME280;60655;52.182;4.474;2023-04-25T01:52:26;101134.44;;;7.48;70.14
72612;BME280;60655;52.182;4.474;2023-04-25T01:54:26;101137.38;;;7.60;70.79
72612;BME280;60655;52.182;4.474;2023-04-25T01:56:37;101135.00;;;7.65;70.39
72612;BME280;60655;52.182;4.474;2023-04-25T01:58:38;101135.56;;;7.60;70.01
72612;BME280;60655;52.182;4.474;2023-04-25T02:00:39;101140.66;;;7.62;72.55
72612;BME280;60655;52.182;4.474;2023-04-25T02:02:41;101129.53;;;7.66;69.47
72612;BME280;60655;52.182;4.474;2023-04-25T02:04:42;101141.28;;;7.42;68.64
72612;BME280;60655;52.182;4.474;2023-04-25T02:06:42;101135.19;;;7.63;69.19
72612;BME280;60655;52.182;4.474;2023-04-25T02:08:43;101140.28;;;7.65;69.84
72612;BME280;60655;52.182;4.474;2023-04-25T02:10:44;101140.78;;;7.54;68.44
72612;BME280;60655;52.182;4.474;2023-04-25T02:12:45;101140.28;;;7.43;67.40
72612;BME280;60655;52.182;4.474;2023-04-25T02:14:46;101149.59;;;7.61;68.87
72612;BME280;60655;52.182;4.474;2023-04-25T02:16:47;101146.06;;;7.54;65.82
72612;BME280;60655;52.182;4.474;2023-04-25T02:18:48;101143.56;;;7.45;67.21
72612;BME280;60655;52.182;4.474;2023-04-25T02:20:48;101144.13;;;7.41;66.49
72612;BME280;60655;52.182;4.474;2023-04-25T02:22:49;101147.88;;;7.53;66.95
72612;BME280;60655;52.182;4.474;2023-04-25T02:24:51;101143.41;;;7.54;69.34
72612;BME280;60655;52.182;4.474;2023-04-25T02:26:51;101146.50;;;7.57;66.30
72612;BME280;60655;52.182;4.474;2023-04-25T02:28:53;101150.03;;;7.64;66.50
72612;BME280;60655;52.182;4.474;2023-04-25T02:30:54;101158.34;;;7.61;68.17
72612;BME280;60655;52.182;4.474;2023-04-25T02:32:55;101150.03;;;7.64;67.86
72612;BME280;60655;52.182;4.474;2023-04-25T02:34:56;101156.53;;;7.62;67.05
72612;BME280;60655;52.182;4.474;2023-04-25T02:36:59;101154.63;;;7.34;67.49
72612;BME280;60655;52.182;4.474;2023-04-25T02:39:00;101153.13;;;7.47;67.62
72612;BME280;60655;52.182;4.474;2023-04-25T02:41:01;101152.34;;;7.53;66.29
72612;BME280;60655;52.182;4.474;2023-04-25T02:43:02;101147.59;;;7.63;66.66
72612;BME280;60655;52.182;4.474;2023-04-25T02:45:03;101157.53;;;7.61;66.87
72612;BME280;60655;52.182;4.474;2023-04-25T02:47:04;101153.50;;;7.43;68.39
72612;BME280;60655;52.182;4.474;2023-04-25T02:49:05;101149.47;;;7.48;68.49
72612;BME280;60655;52.182;4.474;2023-04-25T02:51:06;101154.69;;;7.41;69.48
72612;BME280;60655;52.182;4.474;2023-04-25T02:53:07;101152.03;;;7.41;72.89
72612;BME280;60655;52.182;4.474;2023-04-25T02:55:08;101149.03;;;7.44;75.14
72612;BME280;60655;52.182;4.474;2023-04-25T02:57:09;101141.22;;;7.36;75.37
72612;BME280;60655;52.182;4.474;2023-04-25T02:59:10;101148.44;;;7.27;76.40
72612;BME280;60655;52.182;4.474;2023-04-25T03:01:11;101150.13;;;7.14;77.30
72612;BME280;60655;52.182;4.474;2023-04-25T03:03:11;101153.69;;;7.06;78.33
72612;BME280;60655;52.182;4.474;2023-04-25T03:05:12;101157.50;;;7.03;77.94
72612;BME280;60655;52.182;4.474;2023-04-25T03:07:13;101153.22;;;7.17;78.48
72612;BME280;60655;52.182;4.474;2023-04-25T03:09:14;101157.25;;;6.98;78.83
72612;BME280;60655;52.182;4.474;2023-04-25T03:11:15;101159.34;;;7.03;79.30
72612;BME280;60655;52.182;4.474;2023-04-25T03:13:16;101155.94;;;7.09;79.10
72612;BME280;60655;52.182;4.474;2023-04-25T03:15:17;101153.13;;;6.96;79.15
72612;BME280;60655;52.182;4.474;2023-04-25T03:17:18;101159.69;;;7.00;79.79
72612;BME280;60655;52.182;4.474;2023-04-25T03:19:19;101155.34;;;6.92;80.32
72612;BME280;60655;52.182;4.474;2023-04-25T03:21:21;101152.91;;;6.91;79.47
72612;BME280;60655;52.182;4.474;2023-04-25T03:23:21;101145.66;;;7.14;77.40
72612;BME280;60655;52.182;4.474;2023-04-25T03:25:22;101151.41;;;7.03;77.13
72612;BME280;60655;52.182;4.474;2023-04-25T03:27:23;101166.75;;;6.78;74.83
72612;BME280;60655;52.182;4.474;2023-04-25T03:29:24;101164.81;;;6.87;74.98
72612;BME280;60655;52.182;4.474;2023-04-25T03:31:27;101169.66;;;6.83;73.42
72612;BME280;60655;52.182;4.474;2023-04-25T03:33:27;101173.44;;;7.10;74.62
72612;BME280;60655;52.182;4.474;2023-04-25T03:35:28;101172.09;;;6.99;73.07
72612;BME280;60655;52.182;4.474;2023-04-25T03:37:29;101170.88;;;7.17;73.14
72612;BME280;60655;52.182;4.474;2023-04-25T03:39:30;101163.84;;;7.24;73.58
72612;BME280;60655;52.182;4.474;2023-04-25T03:41:31;101167.44;;;7.16;72.92
72612;BME280;60655;52.182;4.474;2023-04-25T03:43:32;101157.31;;;7.20;72.56
72612;BME280;60655;52.182;4.474;2023-04-25T03:45:33;101161.72;;;7.34;71.23
72612;BME280;60655;52.182;4.474;2023-04-25T03:47:33;101172.63;;;7.45;73.74
72612;BME280;60655;52.182;4.474;2023-04-25T03:49:34;101171.03;;;7.30;72.50
72612;BME280;60655;52.182;4.474;2023-04-25T03:51:36;101170.00;;;7.45;72.80
72612;BME280;60655;52.182;4.474;2023-04-25T03:53:37;101172.44;;;7.47;72.84
72612;BME280;60655;52.182;4.474;2023-04-25T03:55:37;101171.47;;;7.33;73.69
72612;BME280;60655;52.182;4.474;2023-04-25T03:57:38;101177.75;;;7.32;72.21
72612;BME280;60655;52.182;4.474;2023-04-25T03:59:39;101179.94;;;7.29;72.75
72612;BME280;60655;52.182;4.474;2023-04-25T04:01:40;101180.31;;;7.40;74.40
72612;BME280;60655;52.182;4.474;2023-04-25T04:03:41;101180.03;;;7.35;73.31
72612;BME280;60655;52.182;4.474;2023-04-25T04:05:42;101187.13;;;7.50;74.99
72612;BME280;60655;52.182;4.474;2023-04-25T04:07:43;101184.59;;;7.41;75.05
72612;BME280;60655;52.182;4.474;2023-04-25T04:09:43;101203.09;;;7.41;75.19
72612;BME280;60655;52.182;4.474;2023-04-25T04:11:44;101214.34;;;7.14;74.88
72612;BME280;60655;52.182;4.474;2023-04-25T04:13:45;101206.25;;;7.16;73.26
72612;BME280;60655;52.182;4.474;2023-04-25T04:15:46;101213.25;;;7.08;74.26
72612;BME280;60655;52.182;4.474;2023-04-25T04:17:48;101209.50;;;7.18;75.73
72612;BME280;60655;52.182;4.474;2023-04-25T04:19:48;101211.88;;;6.98;76.75
72612;BME280;60655;52.182;4.474;2023-04-25T04:21:50;101210.78;;;7.07;74.64
72612;BME280;60655;52.182;4.474;2023-04-25T04:23:51;101210.97;;;7.05;75.29
72612;BME280;60655;52.182;4.474;2023-04-25T04:25:52;101219.63;;;7.14;74.08
72612;BME280;60655;52.182;4.474;2023-04-25T04:27:54;101217.00;;;7.14;75.07
72612;BME280;60655;52.182;4.474;2023-04-25T04:29:55;101217.81;;;7.00;75.07
72612;BME280;60655;52.182;4.474;2023-04-25T04:31:56;101215.34;;;7.13;76.16
72612;BME280;60655;52.182;4.474;2023-04-25T04:33:57;101216.69;;;7.24;74.83
72612;BME280;60655;52.182;4.474;2023-04-25T04:35:58;101217.25;;;7.19;74.71
72612;BME280;60655;52.182;4.474;2023-04-25T04:37:59;101221.91;;;7.17;75.64
72612;BME280;60655;52.182;4.474;2023-04-25T04:40:00;101224.06;;;7.28;76.28
72612;BME280;60655;52.182;4.474;2023-04-25T04:42:06;101217.41;;;7.32;74.74
72612;BME280;60655;52.182;4.474;2023-04-25T04:44:07;101209.38;;;7.26;75.81
72612;BME280;60655;52.182;4.474;2023-04-25T04:46:09;101219.03;;;7.33;75.63
72612;BME280;60655;52.182;4.474;2023-04-25T04:48:11;101220.09;;;7.03;72.82
72612;BME280;60655;52.182;4.474;2023-04-25T04:50:14;101224.09;;;6.99;73.27
72612;BME280;60655;52.182;4.474;2023-04-25T04:52:16;101225.06;;;7.27;76.63
72612;BME280;60655;52.182;4.474;2023-04-25T04:54:17;101232.13;;;6.91;74.47
72612;BME280;60655;52.182;4.474;2023-04-25T04:56:18;101227.38;;;6.86;75.47
72612;BME280;60655;52.182;4.474;2023-04-25T04:58:21;101248.41;;;6.80;73.78
72612;BME280;60655;52.182;4.474;2023-04-25T05:00:22;101250.03;;;6.66;74.76
72612;BME280;60655;52.182;4.474;2023-04-25T05:02:23;101238.38;;;6.60;74.42
72612;BME280;60655;52.182;4.474;2023-04-25T05:04:24;101252.28;;;6.54;71.48
72612;BME280;60655;52.182;4.474;2023-04-25T05:06:25;101251.00;;;6.50;71.72
72612;BME280;60655;52.182;4.474;2023-04-25T05:08:26;101242.25;;;6.35;71.16
72612;BME280;60655;52.182;4.474;2023-04-25T05:10:27;101250.06;;;6.43;71.37
72612;BME280;60655;52.182;4.474;2023-04-25T05:12:28;101256.09;;;6.52;70.31
72612;BME280;60655;52.182;4.474;2023-04-25T05:14:28;101262.50;;;6.57;70.58
72612;BME280;60655;52.182;4.474;2023-04-25T05:16:29;101268.78;;;6.56;69.62
72612;BME280;60655;52.182;4.474;2023-04-25T05:18:30;101275.19;;;6.39;70.10
72612;BME280;60655;52.182;4.474;2023-04-25T05:20:31;101284.47;;;6.35;71.00
72612;BME280;60655;52.182;4.474;2023-04-25T05:22:32;101285.84;;;6.46;72.61
72612;BME280;60655;52.182;4.474;2023-04-25T05:24:33;101294.06;;;6.51;71.40
72612;BME280;60655;52.182;4.474;2023-04-25T05:26:34;101302.44;;;6.54;71.56
72612;BME280;60655;52.182;4.474;2023-04-25T05:28:36;101318.34;;;6.23;73.80
72612;BME280;60655;52.182;4.474;2023-04-25T05:30:37;101324.66;;;5.91;76.95
72612;BME280;60655;52.182;4.474;2023-04-25T05:32:38;101334.38;;;5.83;80.15
72612;BME280;60655;52.182;4.474;2023-04-25T05:34:41;101326.63;;;5.89;81.38
72612;BME280;60655;52.182;4.474;2023-04-25T05:36:42;101327.63;;;5.80;81.81
72612;BME280;60655;52.182;4.474;2023-04-25T05:38:43;101319.38;;;5.91;84.56
72612;BME280;60655;52.182;4.474;2023-04-25T05:40:44;101321.16;;;5.99;84.14
72612;BME280;60655;52.182;4.474;2023-04-25T05:42:45;101328.25;;;5.98;84.30
72612;BME280;60655;52.182;4.474;2023-04-25T05:44:46;101314.75;;;6.16;84.61
72612;BME280;60655;52.182;4.474;2023-04-25T05:46:47;101312.59;;;6.20;84.43
72612;BME280;60655;52.182;4.474;2023-04-25T05:48:48;101311.44;;;6.22;85.55
72612;BME280;60655;52.182;4.474;2023-04-25T05:50:49;101317.06;;;6.19;86.21
72612;BME280;60655;52.182;4.474;2023-04-25T05:52:50;101318.13;;;6.33;86.06
72612;BME280;60655;52.182;4.474;2023-04-25T05:54:51;101318.19;;;6.25;86.27
72612;BME280;60655;52.182;4.474;2023-04-25T05:56:52;101323.75;;;6.30;86.99
72612;BME280;60655;52.182;4.474;2023-04-25T05:58:53;101324.91;;;6.50;87.23
72612;BME280;60655;52.182;4.474;2023-04-25T06:00:54;101325.97;;;6.41;86.63
72612;BME280;60655;52.182;4.474;2023-04-25T06:02:56;101332.84;;;6.27;86.80
72612;BME280;60655;52.182;4.474;2023-04-25T06:04:56;101330.41;;;6.40;87.95
72612;BME280;60655;52.182;4.474;2023-04-25T06:06:57;101330.53;;;6.47;87.11
72612;BME280;60655;52.182;4.474;2023-04-25T06:08:58;101329.94;;;6.60;87.04
72612;BME280;60655;52.182;4.474;2023-04-25T06:10:59;101327.66;;;6.57;85.91
72612;BME280;60655;52.182;4.474;2023-04-25T06:13:00;101337.06;;;6.59;86.21
72612;BME280;60655;52.182;4.474;2023-04-25T06:15:01;101337.69;;;6.61;87.35
72612;BME280;60655;52.182;4.474;2023-04-25T06:17:03;101338.78;;;6.67;86.26
72612;BME280;60655;52.182;4.474;2023-04-25T06:19:07;101343.53;;;6.71;85.65
72612;BME280;60655;52.182;4.474;2023-04-25T06:21:07;101331.56;;;6.84;86.83
72612;BME280;60655;52.182;4.474;2023-04-25T06:23:08;101340.75;;;6.88;85.87
72612;BME280;60655;52.182;4.474;2023-04-25T06:25:09;101337.59;;;7.07;86.04
72612;BME280;60655;52.182;4.474;2023-04-25T06:27:10;101346.16;;;7.09;83.29
72612;BME280;60655;52.182;4.474;2023-04-25T06:29:11;101338.97;;;7.18;82.58
72612;BME280;60655;52.182;4.474;2023-04-25T06:31:12;101343.78;;;7.29;76.69
72612;BME280;60655;52.182;4.474;2023-04-25T06:33:13;101345.81;;;7.41;75.91
72612;BME280;60655;52.182;4.474;2023-04-25T06:35:14;101343.25;;;7.33;74.80
72612;BME280;60655;52.182;4.474;2023-04-25T06:37:15;101348.44;;;7.27;77.08
72612;BME280;60655;52.182;4.474;2023-04-25T06:39:16;101349.72;;;7.31;73.59
72612;BME280;60655;52.182;4.474;2023-04-25T06:41:17;101353.75;;;7.41;74.41
72612;BME280;60655;52.182;4.474;2023-04-25T06:43:18;101357.09;;;7.35;75.34
72612;BME280;60655;52.182;4.474;2023-04-25T06:45:19;101352.44;;;7.23;72.04
72612;BME280;60655;52.182;4.474;2023-04-25T06:47:19;101363.00;;;7.23;74.37
72612;BME280;60655;52.182;4.474;2023-04-25T06:49:20;101363.28;;;7.28;75.81
72612;BME280;60655;52.182;4.474;2023-04-25T06:51:21;101359.56;;;7.66;77.54
72612;BME280;60655;52.182;4.474;2023-04-25T06:53:22;101363.16;;;7.95;76.85
72612;BME280;60655;52.182;4.474;2023-04-25T06:55:23;101370.00;;;7.89;74.55
72612;BME280;60655;52.182;4.474;2023-04-25T06:57:24;101355.31;;;7.87;72.93
72612;BME280;60655;52.182;4.474;2023-04-25T06:59:24;101370.94;;;7.82;71.59
72612;BME280;60655;52.182;4.474;2023-04-25T07:01:25;101373.31;;;7.76;70.02
72612;BME280;60655;52.182;4.474;2023-04-25T07:03:26;101372.38;;;7.84;69.30
72612;BME280;60655;52.182;4.474;2023-04-25T07:05:27;101370.09;;;7.81;68.75
72612;BME280;60655;52.182;4.474;2023-04-25T07:07:28;101370.75;;;7.83;66.14
72612;BME280;60655;52.182;4.474;2023-04-25T07:09:29;101374.16;;;7.77;64.20
72612;BME280;60655;52.182;4.474;2023-04-25T07:11:30;101376.59;;;7.64;65.63
72612;BME280;60655;52.182;4.474;2023-04-25T07:13:31;101381.53;;;7.52;67.83
72612;BME280;60655;52.182;4.474;2023-04-25T07:15:32;101382.97;;;7.55;66.82
72612;BME280;60655;52.182;4.474;2023-04-25T07:17:33;101380.72;;;7.66;66.75
72612;BME280;60655;52.182;4.474;2023-04-25T07:19:34;101386.81;;;7.67;67.93
72612;BME280;60655;52.182;4.474;2023-04-25T07:21:35;101386.72;;;7.75;68.40
72612;BME280;60655;52.182;4.474;2023-04-25T07:23:37;101382.69;;;7.94;65.74
72612;BME280;60655;52.182;4.474;2023-04-25T07:25:38;101391.84;;;8.12;63.65
72612;BME280;60655;52.182;4.474;2023-04-25T07:27:39;101389.78;;;8.08;63.83
72612;BME280;60655;52.182;4.474;2023-04-25T07:29:39;101388.50;;;8.40;62.98
72612;BME280;60655;52.182;4.474;2023-04-25T07:31:40;101386.28;;;8.22;62.00
72612;BME280;60655;52.182;4.474;2023-04-25T07:33:42;101393.66;;;8.27;62.99
72612;BME280;60655;52.182;4.474;2023-04-25T07:35:42;101395.53;;;8.48;60.98
72612;BME280;60655;52.182;4.474;2023-04-25T07:37:44;101395.78;;;8.74;62.80
72612;BME280;60655;52.182;4.474;2023-04-25T07:39:45;101396.66;;;8.81;61.00
72612;BME280;60655;52.182;4.474;2023-04-25T07:41:49;101397.34;;;8.68;60.54
72612;BME280;60655;52.182;4.474;2023-04-25T07:43:49;101402.63;;;8.68;60.94
72612;BME280;60655;52.182;4.474;2023-04-25T07:45:50;101404.72;;;8.73;64.52
72612;BME280;60655;52.182;4.474;2023-04-25T07:47:51;101398.75;;;8.86;62.11
72612;BME280;60655;52.182;4.474;2023-04-25T07:49:52;101414.69;;;8.50;62.14
72612;BME280;60655;52.182;4.474;2023-04-25T07:51:53;101412.00;;;8.64;63.02
72612;BME280;60655;52.182;4.474;2023-04-25T07:53:54;101421.69;;;8.78;64.48
72612;BME280;60655;52.182;4.474;2023-04-25T07:55:54;101411.41;;;8.69;62.87
72612;BME280;60655;52.182;4.474;2023-04-25T07:57:55;101404.34;;;8.55;61.75
72612;BME280;60655;52.182;4.474;2023-04-25T07:59:56;101417.69;;;8.61;63.01
72612;BME280;60655;52.182;4.474;2023-04-25T08:01:57;101434.88;;;8.51;62.92
72612;BME280;60655;52.182;4.474;2023-04-25T08:03:58;101431.88;;;8.39;63.95
72612;BME280;60655;52.182;4.474;2023-04-25T08:05:59;101432.66;;;8.54;63.20
72612;BME280;60655;52.182;4.474;2023-04-25T08:08:03;101442.06;;;8.78;63.95
72612;BME280;60655;52.182;4.474;2023-04-25T08:10:06;101453.00;;;8.90;62.51
72612;BME280;60655;52.182;4.474;2023-04-25T08:12:07;101455.88;;;8.73;62.24
72612;BME280;60655;52.182;4.474;2023-04-25T08:14:08;101454.50;;;8.77;63.10
72612;BME280;60655;52.182;4.474;2023-04-25T08:16:09;101456.78;;;8.80;59.61
72612;BME280;60655;52.182;4.474;2023-04-25T08:18:10;101459.72;;;8.71;59.25
72612;BME280;60655;52.182;4.474;2023-04-25T08:20:11;101456.31;;;8.56;60.87
72612;BME280;60655;52.182;4.474;2023-04-25T08:22:12;101468.28;;;8.52;59.18
72612;BME280;60655;52.182;4.474;2023-04-25T08:24:13;101467.09;;;8.54;62.20
72612;BME280;60655;52.182;4.474;2023-04-25T08:26:14;101474.00;;;8.34;60.80
72612;BME280;60655;52.182;4.474;2023-04-25T08:28:15;101476.31;;;8.58;60.20
72612;BME280;60655;52.182;4.474;2023-04-25T08:30:16;101487.94;;;8.42;60.13
72612;BME280;60655;52.182;4.474;2023-04-25T08:32:18;101482.50;;;8.65;60.12
72612;BME280;60655;52.182;4.474;2023-04-25T08:34:19;101487.22;;;8.70;60.35
72612;BME280;60655;52.182;4.474;2023-04-25T08:36:21;101498.19;;;8.67;61.65
72612;BME280;60655;52.182;4.474;2023-04-25T08:38:22;101497.06;;;8.76;61.08
72612;BME280;60655;52.182;4.474;2023-04-25T08:40:23;101498.41;;;8.65;60.23
72612;BME280;60655;52.182;4.474;2023-04-25T08:42:31;101494.97;;;8.71;61.65
72612;BME280;60655;52.182;4.474;2023-04-25T08:44:34;101512.09;;;8.90;60.09
72612;BME280;60655;52.182;4.474;2023-04-25T08:46:37;101508.09;;;8.58;60.73
72612;BME280;60655;52.182;4.474;2023-04-25T08:48:40;101511.09;;;8.55;59.93
72612;BME280;60655;52.182;4.474;2023-04-25T08:50:52;101517.81;;;8.72;61.73
72612;BME280;60655;52.182;4.474;2023-04-25T08:52:54;101527.41;;;8.73;60.76
72612;BME280;60655;52.182;4.474;2023-04-25T08:54:57;101514.13;;;8.52;62.36
72612;BME280;60655;52.182;4.474;2023-04-25T08:57:01;101528.72;;;8.63;61.17
72612;BME280;60655;52.182;4.474;2023-04-25T08:59:05;101539.78;;;8.52;59.94
72612;BME280;60655;52.182;4.474;2023-04-25T09:01:08;101534.41;;;8.81;60.79
72612;BME280;60655;52.182;4.474;2023-04-25T09:03:10;101536.66;;;8.63;63.08
72612;BME280;60655;52.182;4.474;2023-04-25T09:05:13;101540.06;;;8.42;66.26
72612;BME280;60655;52.182;4.474;2023-04-25T09:07:14;101552.00;;;8.38;69.15
72612;BME280;60655;52.182;4.474;2023-04-25T09:09:19;101553.75;;;8.60;69.60
72612;BME280;60655;52.182;4.474;2023-04-25T09:11:19;101558.13;;;8.53;69.21
72612;BME280;60655;52.182;4.474;2023-04-25T09:13:28;101548.91;;;8.49;70.10
72612;BME280;60655;52.182;4.474;2023-04-25T09:15:29;101557.75;;;8.27;68.57
72612;BME280;60655;52.182;4.474;2023-04-25T09:17:30;101567.22;;;7.92;70.99
72612;BME280;60655;52.182;4.474;2023-04-25T09:19:36;101569.63;;;8.01;70.29
72612;BME280;60655;52.182;4.474;2023-04-25T09:21:40;101565.78;;;8.19;71.27
72612;BME280;60655;52.182;4.474;2023-04-25T09:23:43;101563.34;;;8.32;69.17
72612;BME280;60655;52.182;4.474;2023-04-25T09:25:47;101565.69;;;8.27;68.37
72612;BME280;60655;52.182;4.474;2023-04-25T09:27:53;101570.41;;;8.75;67.97
72612;BME280;60655;52.182;4.474;2023-04-25T09:29:58;101553.81;;;9.24;67.94
72612;BME280;60655;52.182;4.474;2023-04-25T09:32:16;101570.22;;;8.77;65.80
72612;BME280;60655;52.182;4.474;2023-04-25T09:34:17;101563.66;;;8.73;67.72
72612;BME280;60655;52.182;4.474;2023-04-25T09:36:18;101569.38;;;8.91;65.60
72612;BME280;60655;52.182;4.474;2023-04-25T09:38:26;101571.34;;;9.25;65.34
72612;BME280;60655;52.182;4.474;2023-04-25T09:40:27;101567.88;;;9.25;64.52
72612;BME280;60655;52.182;4.474;2023-04-25T09:42:28;101568.41;;;9.35;65.04
72612;BME280;60655;52.182;4.474;2023-04-25T09:44:32;101572.22;;;9.54;65.01
72612;BME280;60655;52.182;4.474;2023-04-25T09:46:35;101571.84;;;9.78;64.86
72612;BME280;60655;52.182;4.474;2023-04-25T09:48:39;101572.53;;;9.93;65.42
72612;BME280;60655;52.182;4.474;2023-04-25T09:50:41;101563.66;;;10.07;64.01
72612;BME280;60655;52.182;4.474;2023-04-25T09:52:45;101573.09;;;10.16;62.91
72612;BME280;60655;52.182;4.474;2023-04-25T09:54:50;101580.44;;;9.80;63.58
72612;BME280;60655;52.182;4.474;2023-04-25T09:56:52;101583.03;;;9.73;62.49
72612;BME280;60655;52.182;4.474;2023-04-25T09:58:54;101577.94;;;9.51;60.21
72612;BME280;60655;52.182;4.474;2023-04-25T10:01:00;101581.25;;;9.59;60.75
72612;BME280;60655;52.182;4.474;2023-04-25T10:03:01;101580.22;;;9.81;58.46
72612;BME280;60655;52.182;4.474;2023-04-25T10:05:06;101581.28;;;9.87;54.97
72612;BME280;60655;52.182;4.474;2023-04-25T10:07:08;101582.38;;;9.99;56.16
72612;BME280;60655;52.182;4.474;2023-04-25T10:09:11;101581.91;;;9.89;57.73
72612;BME280;60655;52.182;4.474;2023-04-25T10:11:14;101594.06;;;9.77;58.92
72612;BME280;60655;52.182;4.474;2023-04-25T10:13:16;101596.88;;;9.97;59.95
72612;BME280;60655;52.182;4.474;2023-04-25T10:15:17;101605.88;;;9.53;56.16
72612;BME280;60655;52.182;4.474;2023-04-25T10:17:20;101611.53;;;9.22;57.74
72612;BME280;60655;52.182;4.474;2023-04-25T10:19:21;101606.06;;;9.30;57.49
72612;BME280;60655;52.182;4.474;2023-04-25T10:21:23;101607.47;;;9.26;57.32
72612;BME280;60655;52.182;4.474;2023-04-25T10:23:25;101606.06;;;9.30;57.55
72612;BME280;60655;52.182;4.474;2023-04-25T10:25:26;101608.81;;;9.37;57.06
72612;BME280;60655;52.182;4.474;2023-04-25T10:27:27;101613.22;;;9.30;55.70
72612;BME280;60655;52.182;4.474;2023-04-25T10:29:29;101609.44;;;9.39;57.49
72612;BME280;60655;52.182;4.474;2023-04-25T10:31:30;101610.88;;;9.63;56.95
72612;BME280;60655;52.182;4.474;2023-04-25T10:33:36;101603.09;;;10.10;58.02
72612;BME280;60655;52.182;4.474;2023-04-25T10:35:38;101612.81;;;10.25;57.17
72612;BME280;60655;52.182;4.474;2023-04-25T10:38:03;101611.59;;;10.68;55.57
72612;BME280;60655;52.182;4.474;2023-04-25T10:40:09;101618.31;;;10.58;52.42
72612;BME280;60655;52.182;4.474;2023-04-25T10:42:11;101624.84;;;9.71;52.16
72612;BME280;60655;52.182;4.474;2023-04-25T10:44:12;101610.78;;;9.50;55.13